Time;durP1;ratioP1;P1;durP2;ratioP2;P2;SDS_P1;SDS_P2;PMS_P1;PMS_P2;Temp;Humidity;BMP_temperature;BMP_pressure;BME280_temperature;BME280_humidity;BME280_pressure;Samples;Min_cycle;Max_cycle;Signal;HPM_P1;HPM_P2
2021/11/05 00:02:22;;;;;;;5.77;2.93;;;;;;;14.02;nan;99571.94;5054915;28;20226;-68
2021/11/05 00:04:47;;;;;;;5.90;3.00;;;;;;;13.98;nan;99571.38;5072609;28;20535;-69
2021/11/05 00:07:13;;;;;;;5.13;3.10;;;;;;;14.36;nan;99557.28;5055031;28;20175;-69
2021/11/05 00:09:40;;;;;;;4.80;3.00;;;;;;;14.30;nan;99546.22;5054761;28;20195;-68
2021/11/05 00:12:05;;;;;;;5.37;2.80;;;;;;;14.46;nan;99568.06;5054890;28;20260;-68
2021/11/05 00:14:31;;;;;;;4.33;2.63;;;;;;;14.45;nan;99562.84;5054653;28;20292;-69
2021/11/05 00:16:56;;;;;;;4.93;2.40;;;;;;;14.20;nan;99596.34;5054683;28;20205;-69
2021/11/05 00:19:21;;;;;;;5.20;2.60;;;;;;;14.18;nan;99601.00;5072574;28;20667;-69
2021/11/05 00:21:47;;;;;;;4.57;2.60;;;;;;;13.82;nan;99576.38;5075679;28;20178;-68
2021/11/05 00:24:12;;;;;;;7.27;2.90;;;;;;;14.14;nan;99592.38;5076042;28;20653;-68
2021/11/05 00:26:37;;;;;;;7.23;3.43;;;;;;;13.98;nan;99606.25;5076145;28;20183;-68
2021/11/05 00:29:03;;;;;;;3.27;2.60;;;;;;;14.14;nan;99612.97;5057980;28;20190;-68
2021/11/05 00:31:28;;;;;;;5.30;2.93;;;;;;;13.89;nan;99609.72;5075958;28;20224;-69
2021/11/05 00:33:53;;;;;;;4.33;2.83;;;;;;;14.03;nan;99625.47;5082400;28;20203;-69
2021/11/05 00:36:19;;;;;;;3.77;3.13;;;;;;;14.15;nan;99617.38;5080928;28;20179;-69
2021/11/05 00:38:44;;;;;;;3.93;3.00;;;;;;;13.87;nan;99641.19;5064885;28;20183;-69
2021/11/05 00:41:10;;;;;;;5.73;3.33;;;;;;;14.19;nan;99633.06;5068402;28;20195;-67
2021/11/05 00:43:36;;;;;;;6.23;3.13;;;;;;;13.97;nan;99611.72;5067364;28;20174;-68
2021/11/05 00:46:01;;;;;;;6.43;3.47;;;;;;;13.86;nan;99634.13;5068055;28;20182;-68
2021/11/05 00:48:27;;;;;;;8.63;4.00;;;;;;;13.20;nan;99643.31;5064915;28;20524;-68
2021/11/05 00:50:52;;;;;;;6.47;3.80;;;;;;;13.29;nan;99702.34;5063427;28;20217;-68
2021/11/05 00:53:17;;;;;;;6.33;3.80;;;;;;;13.29;nan;99674.69;5063875;28;20234;-69
2021/11/05 00:55:43;;;;;;;5.37;3.73;;;;;;;13.47;nan;99697.31;5080698;28;20202;-68
2021/11/05 00:58:09;;;;;;;6.87;4.00;;;;;;;13.67;nan;99653.59;5079743;28;20185;-68
2021/11/05 01:00:34;;;;;;;6.17;4.37;;;;;;;13.75;nan;99669.03;5059192;28;20608;-67
2021/11/05 01:02:59;;;;;;;13.50;4.43;;;;;;;13.89;nan;99686.66;5058845;28;20232;-69
2021/11/05 01:05:25;;;;;;;5.83;3.73;;;;;;;12.89;nan;99853.81;5058223;28;20225;-68
2021/11/05 01:07:51;;;;;;;9.13;4.77;;;;;;;13.36;nan;100105.53;5058200;28;20178;-68
2021/11/05 01:10:16;;;;;;;12.93;4.37;;;;;;;13.09;nan;100043.31;5076388;28;20207;-70
2021/11/05 01:12:41;;;;;;;5.67;3.90;;;;;;;13.56;nan;100216.66;5076333;28;20217;-68
2021/11/05 01:15:08;;;;;;;7.90;4.47;;;;;;;13.89;nan;100320.53;5075982;28;20203;-71
2021/11/05 01:17:34;;;;;;;9.17;4.20;;;;;;;13.65;nan;99826.28;5058199;28;20638;-68
2021/11/05 01:20:00;;;;;;;4.17;3.50;;;;;;;13.40;nan;100090.97;5075757;28;20191;-68
2021/11/05 01:22:25;;;;;;;6.50;4.03;;;;;;;13.21;nan;100030.84;5075920;28;20205;-68
2021/11/05 01:24:50;;;;;;;7.47;3.40;;;;;;;20.47;nan;99766.91;5075802;28;20646;-67
2021/11/05 01:27:16;;;;;;;4.60;3.17;;;;;;;14.06;nan;99719.09;5075777;28;20531;-69
2021/11/05 01:29:41;;;;;;;6.07;3.20;;;;;;;14.22;nan;99736.59;5057467;28;20199;-68
2021/11/05 01:32:07;;;;;;;4.53;2.93;;;;;;;14.37;nan;99720.03;5057327;28;20175;-68
2021/11/05 01:34:33;;;;;;;7.00;3.10;;;;;;;13.92;nan;99748.94;5042142;28;20202;-69
2021/11/05 01:36:58;;;;;;;9.90;3.10;;;;;;;13.77;nan;99729.63;5057641;28;20205;-67
2021/11/05 01:39:23;;;;;;;7.70;3.00;;;;;;;13.84;nan;99746.06;5057120;28;20685;-67
2021/11/05 01:41:49;;;;;;;7.03;2.97;;;;;;;13.76;nan;99764.63;5075236;28;20178;-67
2021/11/05 01:44:14;;;;;;;7.03;2.60;;;;;;;14.15;nan;99748.84;5040431;28;20669;-67
2021/11/05 01:46:43;;;;;;;7.57;3.07;;;;;;;14.05;nan;99765.69;5057302;28;20658;-67
2021/11/05 01:49:09;;;;;;;4.23;2.80;;;;;;;14.25;nan;99787.31;5074684;28;20665;-68
2021/11/05 01:51:36;;;;;;;5.93;3.10;;;;;;;14.32;nan;99780.44;5057285;28;20554;-69
2021/11/05 01:54:11;;;;;;;9.07;3.53;;;;;;;14.04;nan;99784.59;5057270;28;20237;-68
2021/11/05 01:56:38;;;;;;;3.93;3.50;;;;;;;14.54;nan;99788.41;5057678;28;20212;-67
2021/11/05 01:59:04;;;;;;;6.73;3.30;;;;;;;14.71;nan;99797.69;5075285;28;20232;-68
2021/11/05 02:01:29;;;;;;;3.80;2.73;;;;;;;14.54;nan;99807.22;5074669;28;20566;-68
2021/11/05 02:03:54;;;;;;;4.40;3.00;;;;;;;14.96;nan;99796.44;5041228;28;20187;-69
2021/11/05 02:06:21;;;;;;;4.90;2.97;;;;;;;15.21;nan;99804.00;5057855;28;20171;-69
2021/11/05 02:08:51;;;;;;;5.27;3.63;;;;;;;15.10;nan;99812.19;5075233;28;20171;-69
2021/11/05 02:11:18;;;;;;;6.37;3.70;;;;;;;15.16;nan;99808.09;5058533;28;20273;-68
2021/11/05 02:13:45;;;;;;;7.50;4.30;;;;;;;14.86;nan;99833.13;5057713;28;20178;-68
2021/11/05 02:16:12;;;;;;;8.43;4.50;;;;;;;15.30;nan;99857.00;5058252;28;20175;-68
2021/11/05 02:18:39;;;;;;;14.00;5.90;;;;;;;15.63;nan;99825.44;5045968;28;20270;-67
2021/11/05 02:21:06;;;;;;;16.07;6.20;;;;;;;16.20;nan;99842.66;5069228;28;20187;-68
2021/11/05 02:23:31;;;;;;;11.40;6.73;;;;;;;16.29;nan;99824.78;5055436;28;20179;-70
2021/11/05 02:25:56;;;;;;;13.70;7.13;;;;;;;16.32;nan;99852.28;5082428;28;20174;-70
2021/11/05 02:28:22;;;;;;;15.00;7.53;;;;;;;16.57;nan;99848.19;5074393;28;20232;-69
2021/11/05 02:30:48;;;;;;;16.63;8.03;;;;;;;16.87;nan;99869.59;5074502;28;20230;-68
2021/11/05 02:33:13;;;;;;;13.37;7.50;;;;;;;16.99;nan;99867.56;5056337;28;20175;-69
2021/11/05 02:35:39;;;;;;;17.60;8.60;;;;;;;16.97;nan;99864.19;5073866;28;20187;-68
2021/11/05 02:38:04;;;;;;;16.23;8.90;;;;;;;17.16;nan;99866.00;5074095;28;20646;-68
2021/11/05 02:40:30;;;;;;;17.63;9.73;;;;;;;17.22;nan;99870.78;5055691;28;20186;-69
2021/11/05 02:42:55;;;;;;;17.30;9.43;;;;;;;17.31;nan;99871.75;5057725;28;20228;-69
2021/11/05 02:45:20;;;;;;;19.57;11.23;;;;;;;17.13;nan;99869.81;5039399;28;20542;-68
2021/11/05 02:47:46;;;;;;;19.10;11.50;;;;;;;17.28;nan;99874.75;5056202;28;20171;-68
2021/11/05 02:50:15;;;;;;;18.87;11.67;;;;;;;17.63;nan;99891.06;5055924;28;20196;-69
2021/11/05 02:52:41;;;;;;;22.00;11.27;;;;;;;17.86;nan;99885.31;5039118;28;20186;-68
2021/11/05 02:55:07;;;;;;;23.93;12.30;;;;;;;17.95;nan;99881.72;5056215;28;20276;-69
2021/11/05 02:57:33;;;;;;;27.70;13.07;;;;;;;17.47;nan;99886.31;5074123;28;20183;-68
2021/11/05 02:59:58;;;;;;;28.33;14.10;;;;;;;17.05;nan;99887.69;5058785;28;20245;-70
2021/11/05 03:02:23;;;;;;;28.63;14.10;;;;;;;17.68;nan;99894.19;5038932;28;20650;-70
2021/11/05 03:04:49;;;;;;;28.27;14.47;;;;;;;18.09;nan;99913.59;5055839;28;20191;-68
2021/11/05 03:07:15;;;;;;;35.73;16.03;;;;;;;17.92;nan;99923.34;5038800;28;20244;-69
2021/11/05 03:09:40;;;;;;;34.10;16.87;;;;;;;17.66;nan;99916.91;5073243;28;20198;-69
2021/11/05 03:12:08;;;;;;;35.23;16.03;;;;;;;18.09;nan;99935.19;5055318;28;20174;-70
2021/11/05 03:14:33;;;;;;;36.13;17.33;;;;;;;18.24;nan;99928.28;5055312;28;20216;-68
2021/11/05 03:16:59;;;;;;;34.33;16.93;;;;;;;18.39;nan;99942.13;5055441;28;20168;-69
2021/11/05 03:19:24;;;;;;;45.83;18.03;;;;;;;18.47;nan;99938.66;5073312;28;20187;-69
2021/11/05 03:21:49;;;;;;;36.37;18.40;;;;;;;18.62;nan;99948.81;5073107;28;20182;-68
2021/11/05 03:24:15;;;;;;;39.30;18.97;;;;;;;19.05;nan;99960.69;5055219;28;20569;-68
2021/11/05 03:26:40;;;;;;;38.83;18.77;;;;;;;19.11;nan;99962.75;5073134;28;20181;-68
2021/11/05 03:29:05;;;;;;;36.23;18.90;;;;;;;19.04;nan;99969.81;5038252;28;20257;-69
2021/11/05 03:31:31;;;;;;;38.63;18.90;;;;;;;18.95;nan;99974.28;5072906;28;20182;-69
2021/11/05 03:33:57;;;;;;;29.83;17.83;;;;;;;18.49;nan;100047.41;5072818;28;20186;-69
2021/11/05 03:36:23;;;;;;;30.97;17.20;;;;;;;17.98;nan;99975.91;5055420;28;20180;-68
2021/11/05 03:38:49;;;;;;;27.37;15.20;;;;;;;18.21;nan;100024.94;5072881;28;20606;-68
2021/11/05 03:41:14;;;;;;;31.30;17.10;;;;;;;18.35;nan;100002.84;5072820;28;20200;-69
2021/11/05 03:43:39;;;;;;;25.00;15.47;;;;;;;18.27;nan;100002.75;5073229;28;20207;-69
2021/11/05 03:46:06;;;;;;;29.47;16.00;;;;;;;18.23;nan;100028.38;5073308;28;20231;-70
2021/11/05 03:48:35;;;;;;;27.70;17.23;;;;;;;18.34;nan;100029.03;5055212;28;20665;-70
2021/11/05 03:51:00;;;;;;;36.50;16.23;;;;;;;18.00;nan;100022.50;5056075;28;20295;-69
2021/11/05 03:53:26;;;;;;;32.63;16.47;;;;;;;17.96;nan;100045.38;5057783;28;20173;-69
2021/11/05 03:55:51;;;;;;;30.03;15.30;;;;;;;18.39;nan;100031.25;5040258;28;20195;-69
2021/11/05 03:58:16;;;;;;;27.60;14.67;;;;;;;18.30;nan;100067.28;5042259;28;20558;-69
2021/11/05 04:00:42;;;;;;;28.73;15.90;;;;;;;18.20;nan;100051.09;5058846;28;20681;-69
2021/11/05 04:03:07;;;;;;;29.53;15.40;;;;;;;18.26;nan;100069.44;5058623;28;20175;-69
2021/11/05 04:05:32;;;;;;;30.73;15.70;;;;;;;18.21;nan;100060.06;5061016;28;20233;-70
2021/11/05 04:07:58;;;;;;;28.47;14.83;;;;;;;18.98;nan;100059.66;5044637;28;20184;-68
2021/11/05 04:10:23;;;;;;;25.27;13.63;;;;;;;18.13;nan;100074.31;5058966;28;20194;-68
2021/11/05 04:12:48;;;;;;;25.90;13.47;;;;;;;18.59;nan;100088.78;5076485;28;20172;-69
2021/11/05 04:15:14;;;;;;;23.70;14.10;;;;;;;18.07;nan;100088.41;5058724;28;20201;-69
2021/11/05 04:17:39;;;;;;;21.80;13.37;;;;;;;18.12;nan;100095.06;5058883;28;20178;-71
2021/11/05 04:20:05;;;;;;;19.63;12.30;;;;;;;17.95;nan;100098.53;5076637;28;20193;-69
2021/11/05 04:22:31;;;;;;;22.03;12.60;;;;;;;17.11;nan;100117.16;5058478;28;20181;-69
2021/11/05 04:24:56;;;;;;;20.77;11.43;;;;;;;16.38;nan;100102.19;5076658;28;20174;-70
2021/11/05 04:27:21;;;;;;;19.77;11.40;;;;;;;16.52;nan;100134.13;5041710;28;20204;-68
2021/11/05 04:29:47;;;;;;;29.47;11.73;;;;;;;16.66;nan;100127.53;5076333;28;20199;-67
2021/11/05 04:32:12;;;;;;;22.43;10.80;;;;;;;17.19;nan;100136.19;5076054;28;20172;-68
2021/11/05 04:34:38;;;;;;;21.87;10.97;;;;;;;16.70;nan;100120.88;5058497;28;20194;-67
2021/11/05 04:37:03;;;;;;;16.70;10.90;;;;;;;17.25;nan;100147.41;5076298;28;20177;-68
2021/11/05 04:39:28;;;;;;;20.10;9.83;;;;;;;16.77;nan;100132.84;5058125;28;20191;-68
2021/11/05 04:41:54;;;;;;;14.47;9.07;;;;;;;17.32;nan;100140.44;5058577;28;20186;-69
2021/11/05 04:44:19;;;;;;;15.00;8.97;;;;;;;16.73;nan;100150.28;5058670;28;20658;-69
2021/11/05 04:46:44;;;;;;;13.80;8.37;;;;;;;17.03;nan;100152.03;5082209;28;20182;-69
2021/11/05 04:49:10;;;;;;;15.50;8.67;;;;;;;16.56;nan;100169.72;5059366;28;20635;-69
2021/11/05 04:51:35;;;;;;;20.93;8.63;;;;;;;16.22;nan;100177.22;5097064;22;20284;-73
2021/11/05 04:54:00;;;;;;;14.63;8.23;;;;;;;17.29;nan;100176.63;5076101;28;20261;-75
2021/11/05 04:56:26;;;;;;;14.87;8.70;;;;;;;17.18;nan;100174.94;5058912;28;20308;-75
2021/11/05 04:58:52;;;;;;;16.50;7.50;;;;;;;17.24;nan;100191.53;5063189;28;20179;-74
2021/11/05 05:01:17;;;;;;;19.50;8.13;;;;;;;16.68;nan;100187.53;5058577;28;20204;-76
2021/11/05 05:03:42;;;;;;;15.20;8.57;;;;;;;16.83;nan;100179.94;5076334;28;20208;-76
2021/11/05 05:06:08;;;;;;;17.13;7.60;;;;;;;16.34;nan;100204.91;5057922;28;20172;-73
2021/11/05 05:08:33;;;;;;;12.53;7.07;;;;;;;16.94;nan;100178.97;5057923;28;20232;-73
2021/11/05 05:10:58;;;;;;;16.20;7.90;;;;;;;16.66;nan;100202.13;5057571;28;20191;-73
2021/11/05 05:13:24;;;;;;;15.87;7.47;;;;;;;16.14;nan;100212.03;5076071;28;20179;-75
2021/11/05 05:15:49;;;;;;;16.20;8.00;;;;;;;17.12;nan;100218.63;5057895;28;20199;-73
2021/11/05 05:18:15;;;;;;;12.90;7.73;;;;;;;17.68;nan;100223.44;5041202;28;20175;-74
2021/11/05 05:20:42;;;;;;;13.53;8.10;;;;;;;17.79;nan;100219.72;5057601;28;20186;-73
2021/11/05 05:23:07;;;;;;;15.50;7.83;;;;;;;17.55;nan;100217.44;5057521;28;20178;-74
2021/11/05 05:25:33;;;;;;;15.33;7.40;;;;;;;17.38;nan;100224.34;5077681;28;20207;-75
2021/11/05 05:27:58;;;;;;;16.80;7.40;;;;;;;17.00;nan;100235.88;5076839;28;20321;-74
2021/11/05 05:30:23;;;;;;;16.70;7.80;;;;;;;17.49;nan;100226.09;5074782;28;20199;-74
2021/11/05 05:32:49;;;;;;;14.43;8.07;;;;;;;17.23;nan;100238.38;5040506;28;20220;-74
2021/11/05 05:35:15;;;;;;;19.07;8.30;;;;;;;17.33;nan;100239.25;5057171;28;20655;-76
2021/11/05 05:37:40;;;;;;;14.17;7.90;;;;;;;16.58;nan;100257.50;5075334;28;20542;-74
2021/11/05 05:40:06;;;;;;;24.30;8.30;;;;;;;17.22;nan;100264.50;5057538;28;20230;-76
2021/11/05 05:42:32;;;;;;;14.97;7.50;;;;;;;17.28;nan;100257.69;5057795;28;20189;-75
2021/11/05 05:44:57;;;;;;;20.63;7.70;;;;;;;17.22;nan;100260.94;5058677;28;20181;-75
2021/11/05 05:47:22;;;;;;;16.77;8.10;;;;;;;16.80;nan;100274.53;5059711;28;20189;-76
2021/11/05 05:49:49;;;;;;;17.63;7.33;;;;;;;17.25;nan;100269.59;5048608;28;20182;-75
2021/11/05 05:52:15;;;;;;;17.73;9.30;;;;;;;17.10;nan;100282.63;5053106;28;20181;-76
2021/11/05 05:54:40;;;;;;;17.87;8.47;;;;;;;17.19;nan;100289.03;5069504;28;20193;-76
2021/11/05 05:57:06;;;;;;;10.77;7.30;;;;;;;16.87;nan;100290.03;5068827;28;20179;-75
2021/11/05 05:59:31;;;;;;;16.50;7.97;;;;;;;17.34;nan;100293.03;5075462;28;20182;-74
2021/11/05 06:01:57;;;;;;;16.17;7.30;;;;;;;16.91;nan;100308.63;5041196;28;20176;-75
2021/11/05 06:04:23;;;;;;;17.00;7.97;;;;;;;17.55;nan;100311.84;5075149;28;20322;-75
2021/11/05 06:06:49;;;;;;;14.00;7.80;;;;;;;17.06;nan;100324.28;5040125;28;20183;-75
2021/11/05 06:09:14;;;;;;;14.53;7.33;;;;;;;17.50;nan;100316.81;5074529;28;20175;-75
2021/11/05 06:11:39;;;;;;;11.50;7.43;;;;;;;17.31;nan;100324.84;5075338;28;20200;-76
2021/11/05 06:14:05;;;;;;;13.37;6.80;;;;;;;16.71;nan;100326.50;5075350;28;20190;-75
2021/11/05 06:16:30;;;;;;;14.93;6.90;;;;;;;15.76;nan;100326.44;5056767;28;20190;-76
2021/11/05 06:18:55;;;;;;;9.43;6.13;;;;;;;15.76;nan;100337.22;5074013;28;20593;-75
2021/11/05 06:21:24;;;;;;;9.13;6.07;;;;;;;17.00;nan;100332.94;5074602;28;20205;-75
2021/11/05 06:23:50;;;;;;;13.53;6.47;;;;;;;17.09;nan;100359.06;5056897;28;20167;-75
2021/11/05 06:26:15;;;;;;;10.90;5.67;;;;;;;16.37;nan;100363.56;5074030;28;20175;-75
2021/11/05 06:28:41;;;;;;;11.43;5.77;;;;;;;16.29;nan;100360.63;5074650;28;20653;-75
2021/11/05 06:31:06;;;;;;;11.93;6.00;;;;;;;15.78;nan;100361.28;5074417;28;20248;-75
2021/11/05 06:33:31;;;;;;;11.67;5.93;;;;;;;16.53;nan;100363.94;5074364;28;20202;-76
2021/11/05 06:35:56;;;;;;;10.47;6.10;;;;;;;16.88;nan;100366.34;5074843;28;20197;-75
2021/11/05 06:38:22;;;;;;;13.93;5.63;;;;;;;16.61;nan;100380.31;5055908;28;20178;-75
2021/11/05 06:40:48;;;;;;;12.90;5.03;;;;;;;16.09;nan;100352.41;5055699;28;20742;-75
2021/11/05 06:43:13;;;;;;;9.17;5.30;;;;;;;15.39;nan;100384.16;5056226;28;20538;-74
2021/11/05 06:45:39;;;;;;;8.50;4.73;;;;;;;15.72;nan;100394.09;5074489;28;20609;-75
2021/11/05 06:48:04;;;;;;;7.30;4.27;;;;;;;15.87;nan;100391.00;5073892;28;20179;-76
2021/11/05 06:50:30;;;;;;;7.37;4.50;;;;;;;15.94;nan;100396.72;5055444;28;20672;-76
2021/11/05 06:52:55;;;;;;;7.10;4.03;;;;;;;16.04;nan;100416.53;5055422;28;20178;-75
2021/11/05 06:55:20;;;;;;;16.17;5.33;;;;;;;16.35;nan;100404.06;5055409;28;20317;-75
2021/11/05 06:57:46;;;;;;;8.00;4.33;;;;;;;16.08;nan;100423.38;5073981;28;20185;-75
2021/11/05 07:00:12;;;;;;;8.60;4.23;;;;;;;16.71;nan;100416.28;5073576;28;20536;-74
2021/11/05 07:02:41;;;;;;;11.07;4.30;;;;;;;16.65;nan;100440.19;5073750;28;20520;-75
2021/11/05 07:05:12;;;;;;;11.10;3.97;;;;;;;17.15;nan;100449.41;5056509;28;20167;-75
2021/11/05 07:07:37;;;;;;;7.93;3.73;;;;;;;17.23;nan;100446.03;5055885;28;20171;-74
2021/11/05 07:10:04;;;;;;;6.90;3.43;;;;;;;17.39;nan;100452.63;5055223;28;20208;-75
2021/11/05 07:12:29;;;;;;;11.00;3.57;;;;;;;17.44;nan;100457.63;5055096;28;20181;-75
2021/11/05 07:14:55;;;;;;;10.87;4.10;;;;;;;17.54;nan;100463.09;5055344;28;20688;-74
2021/11/05 07:17:20;;;;;;;7.33;3.00;;;;;;;17.93;nan;100472.25;5073434;28;20531;-75
2021/11/05 07:19:45;;;;;;;8.37;3.37;;;;;;;16.97;nan;100469.81;5073573;28;20181;-74
2021/11/05 07:22:11;;;;;;;9.40;3.00;;;;;;;17.09;nan;100475.00;5073765;28;20193;-74
2021/11/05 07:24:37;;;;;;;11.50;3.20;;;;;;;17.65;nan;100480.03;5073152;28;20230;-74
2021/11/05 07:27:03;;;;;;;8.13;3.40;;;;;;;17.59;nan;100485.97;5038940;28;20179;-75
2021/11/05 07:29:30;;;;;;;4.37;2.93;;;;;;;17.86;nan;100500.78;5055702;28;20588;-74
2021/11/05 07:31:58;;;;;;;7.57;2.63;;;;;;;17.69;nan;100503.09;5042563;28;20215;-74
2021/11/05 07:34:25;;;;;;;9.87;3.10;;;;;;;17.63;nan;100506.31;5059369;28;20305;-75
2021/11/05 07:36:50;;;;;;;5.07;2.87;;;;;;;17.67;nan;100507.78;5075814;28;20599;-75
2021/11/05 07:39:16;;;;;;;8.00;2.97;;;;;;;18.05;nan;100527.84;5077347;28;20185;-74
2021/11/05 07:41:41;;;;;;;4.37;2.47;;;;;;;18.25;nan;100520.66;5059374;28;20194;-74
2021/11/05 07:44:06;;;;;;;8.23;2.77;;;;;;;18.03;nan;100524.41;5060191;28;20179;-74
2021/11/05 07:46:31;;;;;;;4.47;2.50;;;;;;;16.54;nan;100516.53;5060853;28;20642;-74
2021/11/05 07:48:57;;;;;;;7.13;2.87;;;;;;;18.55;nan;100527.81;5088103;28;20205;-74
2021/11/05 07:51:22;;;;;;;11.20;2.23;;;;;;;19.20;nan;100537.16;5076083;28;20209;-74
2021/11/05 07:53:48;;;;;;;5.93;2.60;;;;;;;18.73;nan;100555.94;5064687;28;20177;-75
2021/11/05 07:56:14;;;;;;;4.97;2.27;;;;;;;18.42;nan;100558.69;5077747;28;20197;-75
2021/11/05 07:58:39;;;;;;;6.03;2.40;;;;;;;18.04;nan;100564.78;5059856;28;20177;-76
2021/11/05 08:01:04;;;;;;;5.77;1.90;;;;;;;17.67;nan;100561.75;5060466;28;20191;-74
2021/11/05 08:03:30;;;;;;;4.47;2.50;;;;;;;18.37;nan;100558.25;5061877;28;20266;-74
2021/11/05 08:05:55;;;;;;;3.90;2.27;;;;;;;17.44;nan;100560.13;5062544;28;20167;-75
2021/11/05 08:08:21;;;;;;;3.90;2.70;;;;;;;18.90;nan;100582.25;5063169;28;20637;-74
2021/11/05 08:10:46;;;;;;;4.47;1.97;;;;;;;18.09;nan;100580.59;5065641;28;20201;-74
2021/11/05 08:13:13;;;;;;;6.00;2.37;;;;;;;17.38;nan;100574.16;5066170;28;20173;-74
2021/11/05 08:15:38;;;;;;;6.80;1.90;;;;;;;17.99;nan;100591.34;5062341;28;20669;-74
2021/11/05 08:18:04;;;;;;;5.43;1.83;;;;;;;17.67;nan;100594.16;5080143;28;20181;-75
2021/11/05 08:20:29;;;;;;;3.50;1.73;;;;;;;17.78;nan;100604.84;5062292;28;20675;-74
2021/11/05 08:22:54;;;;;;;8.47;1.90;;;;;;;18.07;nan;100598.78;5078988;28;20184;-74
2021/11/05 08:25:20;;;;;;;5.50;1.90;;;;;;;17.44;nan;100589.81;5061650;28;20171;-75
2021/11/05 08:27:46;;;;;;;4.27;1.80;;;;;;;17.75;nan;100610.53;5044792;28;20175;-74
2021/11/05 08:30:20;;;;;;;2.07;1.80;;;;;;;17.96;nan;100612.38;5080067;28;20200;-74
2021/11/05 08:32:45;;;;;;;5.77;1.87;;;;;;;17.81;nan;100611.84;5064061;28;20255;-75
2021/11/05 08:35:10;;;;;;;4.67;1.73;;;;;;;17.99;nan;100620.19;5079699;28;20229;-75
2021/11/05 08:37:37;;;;;;;2.80;1.73;;;;;;;17.97;nan;100623.03;5046374;28;20175;-74
2021/11/05 08:40:03;;;;;;;5.97;2.23;;;;;;;17.52;nan;100632.38;5079544;28;20205;-74
2021/11/05 08:42:28;;;;;;;3.87;2.00;;;;;;;17.92;nan;100632.53;5062223;28;20671;-74
2021/11/05 08:44:54;;;;;;;2.37;1.30;;;;;;;17.88;nan;100636.47;5077310;28;20224;-74
2021/11/05 08:47:19;;;;;;;7.33;1.90;;;;;;;18.46;nan;100651.13;5059130;28;20167;-73
2021/11/05 08:49:50;;;;;;;3.73;1.60;;;;;;;19.31;nan;100659.59;5058588;28;20508;-75
2021/11/05 08:52:16;;;;;;;6.10;1.70;;;;;;;18.20;nan;100663.38;5060952;28;20207;-75
2021/11/05 08:54:41;;;;;;;3.57;1.20;;;;;;;18.15;nan;100657.50;5060885;28;20669;-74
2021/11/05 08:57:07;;;;;;;4.50;1.40;;;;;;;18.67;nan;100665.47;5076441;28;20638;-74
2021/11/05 08:59:32;;;;;;;7.60;1.33;;;;;;;17.54;nan;100674.41;5076158;28;20184;-73
2021/11/05 09:01:57;;;;;;;6.70;1.60;;;;;;;17.27;nan;100687.50;5075943;28;20175;-74
2021/11/05 09:04:23;;;;;;;5.07;1.63;;;;;;;18.65;nan;100693.63;5058048;28;20178;-73
2021/11/05 09:06:48;;;;;;;5.50;3.03;;;;;;;18.48;nan;100696.94;5058417;28;20178;-75
2021/11/05 09:09:17;;;;;;;2.90;1.70;;;;;;;18.54;nan;100708.03;5058033;28;20173;-74
2021/11/05 09:11:44;;;;;;;2.10;1.47;;;;;;;18.54;nan;100712.59;5058097;28;20297;-74
2021/11/05 09:14:09;;;;;;;3.13;1.33;;;;;;;17.89;nan;100692.19;5060180;28;20531;-74
2021/11/05 09:16:35;;;;;;;8.13;1.60;;;;;;;17.65;nan;100703.19;5058256;28;20178;-74
2021/11/05 09:19:02;;;;;;;3.37;1.43;;;;;;;18.00;nan;100728.06;5058620;28;20178;-74
2021/11/05 09:21:29;;;;;;;2.80;1.33;;;;;;;18.47;nan;100735.75;5060062;28;20190;-73
2021/11/05 09:23:55;;;;;;;2.80;1.10;;;;;;;17.97;nan;100732.88;5058286;28;20166;-73
2021/11/05 09:26:22;;;;;;;2.23;1.20;;;;;;;16.66;nan;100725.69;5076302;28;20181;-74
2021/11/05 09:28:47;;;;;;;2.73;1.43;;;;;;;17.38;nan;100738.72;5057982;28;20359;-75
2021/11/05 09:31:13;;;;;;;4.23;1.30;;;;;;;17.00;nan;100750.81;5077809;28;20293;-76
2021/11/05 09:33:38;;;;;;;3.43;1.33;;;;;;;17.86;nan;100751.84;5077727;28;20170;-74
2021/11/05 09:36:04;;;;;;;2.83;1.20;;;;;;;17.72;nan;100753.00;5077353;28;20194;-75
2021/11/05 09:38:29;;;;;;;4.77;1.57;;;;;;;18.01;nan;100758.63;5076917;28;20172;-74
2021/11/05 09:40:54;;;;;;;4.80;1.53;;;;;;;18.18;nan;100766.13;5041614;28;20221;-74
2021/11/05 09:43:20;;;;;;;6.97;1.60;;;;;;;18.48;nan;100759.09;5060618;28;20181;-75
2021/11/05 09:45:45;;;;;;;5.10;1.53;;;;;;;18.20;nan;100776.81;5075522;28;20201;-75
2021/11/05 09:48:10;;;;;;;3.97;1.10;;;;;;;18.34;nan;100774.66;5057884;28;20187;-75
2021/11/05 09:50:38;;;;;;;4.03;1.40;;;;;;;18.33;nan;100782.91;5075320;28;20582;-73
2021/11/05 09:53:03;;;;;;;4.50;2.23;;;;;;;18.95;nan;100782.81;5061163;28;20205;-75
2021/11/05 09:55:30;;;;;;;5.97;1.57;;;;;;;19.16;nan;100799.00;5059584;28;20194;-75
2021/11/05 09:57:56;;;;;;;3.00;1.60;;;;;;;19.40;nan;100790.53;5058379;28;20163;-74
2021/11/05 10:00:23;;;;;;;5.03;1.80;;;;;;;19.80;nan;100798.63;5056913;28;20213;-75
2021/11/05 10:02:49;;;;;;;2.93;1.23;;;;;;;19.27;nan;100792.63;5059499;28;20642;-75
2021/11/05 10:05:15;;;;;;;6.67;1.50;;;;;;;18.99;nan;100797.81;5059521;28;20170;-74
2021/11/05 10:07:49;;;;;;;2.40;1.30;;;;;;;19.00;nan;100794.13;5057397;28;20734;-75
2021/11/05 10:10:15;;;;;;;2.77;1.00;;;;;;;18.38;nan;100789.63;5076875;28;20609;-74
2021/11/05 10:12:52;;;;;;;2.77;1.10;;;;;;;18.59;nan;100794.16;5057818;28;20180;-76
2021/11/05 10:15:18;;;;;;;6.30;1.57;;;;;;;19.25;nan;100802.72;5058346;28;20532;-76
2021/11/05 10:17:44;;;;;;;4.03;1.07;;;;;;;19.62;nan;100795.72;5080444;28;20179;-75
2021/11/05 10:20:10;;;;;;;7.40;1.00;;;;;;;19.86;nan;100800.75;5056857;28;20202;-74
2021/11/05 10:22:49;;;;;;;2.40;0.90;;;;;;;19.98;nan;100807.72;5075104;28;20180;-74
2021/11/05 10:25:30;;;;;;;3.57;0.97;;;;;;;19.87;nan;100817.84;5059831;28;20240;-75
2021/11/05 10:28:07;;;;;;;7.83;0.90;;;;;;;19.55;nan;100829.78;5076803;28;20165;-75
2021/11/05 10:30:58;;;;;;;4.70;1.20;;;;;;;20.38;nan;100824.81;5062033;28;20197;-75
2021/11/05 10:33:29;;;;;;;4.17;1.00;;;;;;;19.85;nan;100836.97;5076194;28;20194;-77
2021/11/05 10:35:59;;;;;;;3.07;1.20;;;;;;;18.51;nan;100842.59;5062013;28;20198;-76
2021/11/05 10:38:24;;;;;;;4.93;1.60;;;;;;;19.37;nan;100836.81;5059574;28;20189;-76
2021/11/05 10:40:53;;;;;;;3.80;1.77;;;;;;;20.29;nan;100850.94;5073982;28;20735;-74
2021/11/05 10:43:40;;;;;;;2.57;1.60;;;;;;;18.69;nan;100838.34;5058823;28;20174;-74
2021/11/05 10:46:08;;;;;;;4.90;1.87;;;;;;;18.89;nan;100859.09;5056841;28;20158;-75
2021/11/05 10:48:39;;;;;;;5.07;2.37;;;;;;;19.95;nan;100862.19;5043688;28;20196;-75
2021/11/05 10:51:07;;;;;;;4.90;2.00;;;;;;;19.08;nan;100852.06;5057598;28;20251;-75
2021/11/05 10:53:42;;;;;;;8.53;2.67;;;;;;;19.92;nan;100858.91;5040675;28;20173;-74
2021/11/05 10:56:12;;;;;;;4.00;2.50;;;;;;;19.43;nan;100857.06;5057894;28;20653;-74
2021/11/05 10:58:40;;;;;;;5.53;2.90;;;;;;;19.53;nan;100856.13;5055582;28;20178;-74
2021/11/05 11:01:11;;;;;;;6.60;3.37;;;;;;;19.72;nan;100854.47;5057366;28;20221;-75
2021/11/05 11:03:47;;;;;;;7.80;3.80;;;;;;;20.70;nan;100866.06;5055170;28;20182;-75
2021/11/05 11:06:20;;;;;;;5.67;3.00;;;;;;;20.01;nan;100858.06;5055408;28;20158;-75
2021/11/05 11:08:55;;;;;;;8.03;3.10;;;;;;;19.84;nan;100866.88;5073704;28;20162;-75
2021/11/05 11:11:27;;;;;;;4.77;2.80;;;;;;;19.68;nan;100870.13;5057383;28;20221;-74
2021/11/05 11:13:55;;;;;;;6.13;2.20;;;;;;;20.28;nan;100882.63;5039520;28;20202;-75
2021/11/05 11:16:27;;;;;;;4.73;2.80;;;;;;;20.80;nan;100868.75;5039633;28;20738;-74
2021/11/05 11:18:56;;;;;;;4.33;2.30;;;;;;;20.03;nan;100880.44;5039066;28;20163;-74
2021/11/05 11:21:24;;;;;;;3.60;2.20;;;;;;;20.35;nan;100884.75;5073536;28;20201;-74
2021/11/05 11:23:50;;;;;;;5.93;1.70;;;;;;;20.59;nan;100879.78;5056821;28;20202;-74
2021/11/05 11:26:16;;;;;;;9.60;2.37;;;;;;;20.24;nan;100896.59;5055409;28;20223;-75
2021/11/05 11:28:42;;;;;;;3.27;1.60;;;;;;;20.90;nan;100873.16;5073297;28;20689;-74
2021/11/05 11:31:08;;;;;;;3.90;1.80;;;;;;;19.77;nan;100898.25;5055938;28;20217;-74
2021/11/05 11:33:34;;;;;;;7.13;2.00;;;;;;;20.72;nan;100891.19;5055617;28;20179;-74
2021/11/05 11:36:00;;;;;;;4.83;1.57;;;;;;;21.29;nan;100888.50;5055871;28;20684;-74